Impacts TAF Board INFO
FOR SITUATIONAL AWARENESS. NOT TO BE USED FOR FLIGHT PLANNING PURPOSES.
IDs:

KSAN - San Diego Intl Arpt, CA, US

Issued at 0250 UTC 20 Nov 2017
Updated at 0353 UTC 20 Nov 2017
Potential Impact None Slight Moderate High
Time0251Z 20/04Z 20/05Z 20/06Z 20/07Z 20/08Z 20/09Z 20/10Z 20/11Z 20/12Z 20/13Z 20/14Z 20/15Z 20/16Z>>
Type OBS PRVL PRVL PRVL PRVL PRVL PRVL PRVL PRVL PRVL PRVL PRVL PRVL PRVL
VIS 10 >6 >6 >6 >6 >6 >6 >6 >6 >6 >6 >6 >6 >6
CIG -- -- -- -- -- -- -- -- -- -- -- -- -- --
Cover SCT SCT SCT SCT SCT SCT SCT SCT SCT SCT SCT SCT SCT SCT
FltCat VFR VFR VFR VFR VFR VFR VFR VFR VFR VFR VFR VFR VFR VFR
WX -- VCFG VCFG VCFG VCFG VCFG VCFG VCFG VCFG VCFG VCFG VCFG VCFG VCFG
WDir 340 VRB VRB VRB VRB VRB VRB VRB VRB VRB VRB VRB VRB VRB
WSpd 4 4 4 4 4 4 4 4 4 4 4 4 4 4
WGst -- -- -- -- -- -- -- -- -- -- -- -- -- --

Raw TAF
KSAN 200250Z 2003/2106 VRB04KT P6SM VCFG SCT004 SCT200
  FM202100 30009KT P6SM SCT200
  FM210100 VRB04KT P6SM SCT200


Raw METAR
KSAN 200251Z 34004KT 10SM FEW150 SCT200 18/09 A3001 RMK AO2 SLP162 T01780089 53018 $
KSAN 200151Z 02003KT 10SM FEW150 SCT200 18/08 A2998 RMK AO2 SLP151 T01830078 $
KSAN 200051Z 30005KT 10SM FEW150 SCT200 19/11 A2997 RMK AO2 SLP149 T01890111 $

METAR Board
Radar Display
Forecast Discussion

FOR SITUATIONAL AWARENESS. NOT TO BE USED FOR FLIGHT PLANNING PURPOSES.